Time;durP1;ratioP1;P1;durP2;ratioP2;P2;SDS_P1;SDS_P2;PMS_P1;PMS_P2;Temp;Humidity;BMP_temperature;BMP_pressure;BME280_temperature;BME280_humidity;BME280_pressure;Samples;Min_cycle;Max_cycle;Signal;HPM_P1;HPM_P2
2023/06/12 00:02:02;;;;;;;;;23.00;21.33;;;;;;;;5035058;28;45436;-71
2023/06/12 00:04:29;;;;;;;;;20.67;19.67;;;;;;;;5034968;28;45433;-72
2023/06/12 00:06:56;;;;;;;;;22.67;19.67;;;;;;;;5034718;28;47036;-71
2023/06/12 00:09:21;;;;;;;;;28.67;21.67;;;;;;;;5034233;28;45706;-70
2023/06/12 00:11:46;;;;;;;;;34.00;31.33;;;;;;;;5029061;28;45276;-70
2023/06/12 00:14:12;;;;;;;;;22.00;17.00;;;;;;;;5032968;28;45944;-70
2023/06/12 00:16:37;;;;;;;;;20.67;18.33;;;;;;;;5034170;28;46474;-70
2023/06/12 00:19:03;;;;;;;;;27.67;23.67;;;;;;;;5034206;28;45393;-71
2023/06/12 00:21:28;;;;;;;;;31.67;25.33;;;;;;;;5035495;28;45642;-71
2023/06/12 00:23:54;;;;;;;;;16.00;16.00;;;;;;;;5034656;28;46002;-70
2023/06/12 00:26:19;;;;;;;;;23.00;18.33;;;;;;;;5035025;28;46326;-72
2023/06/12 00:28:45;;;;;;;;;30.33;28.00;;;;;;;;5040254;28;45927;-72
2023/06/12 00:31:10;;;;;;;;;38.67;34.67;;;;;;;;5042268;28;45556;-71
2023/06/12 00:33:36;;;;;;;;;21.00;20.33;;;;;;;;5044731;28;45421;-71
2023/06/12 00:36:02;;;;;;;;;21.00;19.67;;;;;;;;5055131;28;45717;-71
2023/06/12 00:38:27;;;;;;;;;19.33;19.00;;;;;;;;5050028;28;46398;-71
2023/06/12 00:40:52;;;;;;;;;21.00;20.00;;;;;;;;5035491;28;45693;-71
2023/06/12 00:43:17;;;;;;;;;25.33;21.67;;;;;;;;5047864;28;45642;-73
2023/06/12 00:45:43;;;;;;;;;19.00;17.33;;;;;;;;5034469;28;46333;-71
2023/06/12 00:48:08;;;;;;;;;25.67;22.00;;;;;;;;5022117;28;45596;-72
2023/06/12 00:50:35;;;;;;;;;24.00;19.33;;;;;;;;5038957;28;45854;-71
2023/06/12 00:53:00;;;;;;;;;17.33;17.00;;;;;;;;5025404;28;45268;-71
2023/06/12 00:55:28;;;;;;;;;14.67;14.67;;;;;;;;5033645;28;45561;-71
2023/06/12 00:57:53;;;;;;;;;29.00;25.33;;;;;;;;5030705;28;45540;-71
2023/06/12 01:00:19;;;;;;;;;21.67;18.67;;;;;;;;5033971;28;45737;-71
2023/06/12 01:02:49;;;;;;;;;24.67;17.67;;;;;;;;5034890;28;45851;-71
2023/06/12 01:05:16;;;;;;;;;27.67;23.67;;;;;;;;5033626;28;46643;-72
2023/06/12 01:07:48;;;;;;;;;15.00;15.00;;;;;;;;5042269;28;45375;-70
2023/06/12 01:10:13;;;;;;;;;19.33;16.67;;;;;;;;5037593;28;45439;-70
2023/06/12 01:12:39;;;;;;;;;18.00;14.67;;;;;;;;5032062;28;45524;-70
2023/06/12 01:15:05;;;;;;;;;18.67;17.00;;;;;;;;5028547;28;45919;-71
2023/06/12 01:17:30;;;;;;;;;18.33;14.00;;;;;;;;5029462;28;45840;-70
2023/06/12 01:19:56;;;;;;;;;17.00;16.00;;;;;;;;5031241;28;45622;-71
2023/06/12 01:22:23;;;;;;;;;19.33;18.67;;;;;;;;5033296;28;45987;-71
2023/06/12 01:24:53;;;;;;;;;18.33;17.33;;;;;;;;5032795;28;47414;-70
2023/06/12 01:27:18;;;;;;;;;18.67;18.00;;;;;;;;5034456;28;45652;-70
2023/06/12 01:30:05;;;;;;;;;20.33;19.00;;;;;;;;5033524;28;45528;-71
2023/06/12 01:32:31;;;;;;;;;19.33;14.67;;;;;;;;5027966;28;45635;-71
2023/06/12 01:34:57;;;;;;;;;14.33;14.33;;;;;;;;5034370;28;45708;-71
2023/06/12 01:37:22;;;;;;;;;16.33;14.67;;;;;;;;5028946;28;45425;-72
2023/06/12 01:39:57;;;;;;;;;23.00;18.33;;;;;;;;5034591;28;45674;-71
2023/06/12 01:42:27;;;;;;;;;17.67;17.67;;;;;;;;5046368;28;46262;-72
2023/06/12 01:44:52;;;;;;;;;17.67;17.67;;;;;;;;5033320;28;46374;-70
2023/06/12 01:47:18;;;;;;;;;20.33;17.00;;;;;;;;5034035;28;45463;-71
2023/06/12 01:49:43;;;;;;;;;20.33;17.00;;;;;;;;5034496;28;45488;-70
2023/06/12 01:52:09;;;;;;;;;19.33;16.33;;;;;;;;5030136;28;45511;-71
2023/06/12 01:54:35;;;;;;;;;18.67;16.33;;;;;;;;5034106;28;46265;-71
2023/06/12 01:57:01;;;;;;;;;19.33;18.33;;;;;;;;5034030;28;45344;-71
2023/06/12 01:59:26;;;;;;;;;20.00;16.33;;;;;;;;5033918;28;45680;-71
2023/06/12 02:01:52;;;;;;;;;14.67;12.00;;;;;;;;5032584;28;45839;-70
2023/06/12 02:04:19;;;;;;;;;13.00;13.00;;;;;;;;5032127;28;47216;-71
2023/06/12 02:06:45;;;;;;;;;18.00;14.67;;;;;;;;5043853;28;45787;-73
2023/06/12 02:09:10;;;;;;;;;17.33;14.00;;;;;;;;5032432;28;45657;-71
2023/06/12 02:11:35;;;;;;;;;17.33;10.67;;;;;;;;5029749;28;47386;-71
2023/06/12 02:14:01;;;;;;;;;14.33;13.67;;;;;;;;5035452;28;48187;-71
2023/06/12 02:16:27;;;;;;;;;17.67;14.33;;;;;;;;5036828;28;45761;-72
2023/06/12 02:18:52;;;;;;;;;14.67;12.67;;;;;;;;5032864;28;45780;-71
2023/06/12 02:21:17;;;;;;;;;16.33;14.67;;;;;;;;5033394;28;45595;-71
2023/06/12 02:23:43;;;;;;;;;19.67;15.00;;;;;;;;5033106;28;45730;-70
2023/06/12 02:26:08;;;;;;;;;18.00;17.00;;;;;;;;5032996;28;45354;-71
2023/06/12 02:28:33;;;;;;;;;19.00;16.33;;;;;;;;5032566;28;45416;-72
2023/06/12 02:30:58;;;;;;;;;20.33;15.67;;;;;;;;5031852;28;45608;-71
2023/06/12 02:33:25;;;;;;;;;18.00;14.33;;;;;;;;5028111;28;46510;-72
2023/06/12 02:35:50;;;;;;;;;17.00;11.33;;;;;;;;5037194;28;45719;-69
2023/06/12 02:38:16;;;;;;;;;15.33;15.00;;;;;;;;5048309;28;45652;-71
2023/06/12 02:40:41;;;;;;;;;22.33;18.00;;;;;;;;5031583;28;46114;-70
2023/06/12 02:43:06;;;;;;;;;11.00;9.67;;;;;;;;5034851;28;45283;-71
2023/06/12 02:45:31;;;;;;;;;16.33;16.33;;;;;;;;5042473;28;45617;-72
2023/06/12 02:47:57;;;;;;;;;16.67;12.33;;;;;;;;5032361;28;45326;-72
2023/06/12 02:50:22;;;;;;;;;14.33;12.00;;;;;;;;5033210;28;45358;-70
2023/06/12 02:52:48;;;;;;;;;17.33;13.67;;;;;;;;5028030;28;45631;-70
2023/06/12 02:55:13;;;;;;;;;20.33;18.33;;;;;;;;5029970;28;45660;-72
2023/06/12 02:57:39;;;;;;;;;14.00;13.00;;;;;;;;5032389;28;45336;-73
2023/06/12 03:00:04;;;;;;;;;14.33;13.33;;;;;;;;5031321;28;45342;-72
2023/06/12 03:02:30;;;;;;;;;16.33;15.00;;;;;;;;5030414;28;46492;-74
2023/06/12 03:04:55;;;;;;;;;15.67;13.67;;;;;;;;5030519;28;45867;-72
2023/06/12 03:07:20;;;;;;;;;14.00;12.00;;;;;;;;5031871;28;45731;-70
2023/06/12 03:09:45;;;;;;;;;14.00;12.67;;;;;;;;5043637;28;45788;-70
2023/06/12 03:12:11;;;;;;;;;14.00;14.00;;;;;;;;5031704;28;45816;-70
2023/06/12 03:14:38;;;;;;;;;16.00;14.67;;;;;;;;5019902;28;45828;-70
2023/06/12 03:17:03;;;;;;;;;17.33;15.33;;;;;;;;5030622;28;45591;-71
2023/06/12 03:19:29;;;;;;;;;15.67;15.00;;;;;;;;5032674;28;45402;-71
2023/06/12 03:21:54;;;;;;;;;14.67;10.67;;;;;;;;5032175;28;46071;-69
2023/06/12 03:24:20;;;;;;;;;19.00;17.00;;;;;;;;5032874;28;45376;-70
2023/06/12 03:26:46;;;;;;;;;18.67;16.67;;;;;;;;5031715;28;45410;-70
2023/06/12 03:29:11;;;;;;;;;20.33;18.00;;;;;;;;5023460;28;45630;-71
2023/06/12 03:31:36;;;;;;;;;12.00;12.00;;;;;;;;5029335;28;47558;-70
2023/06/12 03:34:01;;;;;;;;;17.00;14.33;;;;;;;;5025397;28;45788;-70
2023/06/12 03:36:28;;;;;;;;;11.67;11.67;;;;;;;;5026550;28;45334;-71
2023/06/12 03:38:54;;;;;;;;;15.00;15.00;;;;;;;;5032167;28;45432;-72
2023/06/12 03:41:20;;;;;;;;;18.67;16.33;;;;;;;;5030481;28;46086;-71
2023/06/12 03:43:46;;;;;;;;;20.33;16.67;;;;;;;;5041709;28;45441;-71
2023/06/12 03:46:11;;;;;;;;;17.33;13.33;;;;;;;;5033891;28;45351;-71
2023/06/12 03:48:36;;;;;;;;;18.00;17.33;;;;;;;;5031748;28;45642;-70
2023/06/12 03:51:01;;;;;;;;;20.67;17.00;;;;;;;;5031781;28;45326;-70
2023/06/12 03:53:27;;;;;;;;;20.33;19.00;;;;;;;;5022758;28;45697;-70
2023/06/12 03:55:52;;;;;;;;;16.67;14.67;;;;;;;;5029395;28;45709;-70
2023/06/12 03:58:18;;;;;;;;;16.00;14.00;;;;;;;;5017433;28;45707;-70
2023/06/12 04:00:45;;;;;;;;;20.33;16.67;;;;;;;;5025239;28;47076;-70
2023/06/12 04:03:14;;;;;;;;;18.67;18.67;;;;;;;;5027422;28;45603;-71
2023/06/12 04:05:39;;;;;;;;;20.00;18.00;;;;;;;;5032055;28;45715;-71
2023/06/12 04:08:04;;;;;;;;;20.33;17.33;;;;;;;;5033488;28;45659;-71
2023/06/12 04:10:33;;;;;;;;;14.67;12.67;;;;;;;;5030963;28;47017;-70
2023/06/12 04:12:58;;;;;;;;;17.00;14.67;;;;;;;;5030847;28;46204;-70
2023/06/12 04:15:23;;;;;;;;;23.67;16.33;;;;;;;;5030298;28;45967;-71
2023/06/12 04:17:48;;;;;;;;;13.67;13.33;;;;;;;;5030748;28;45738;-71
2023/06/12 04:20:14;;;;;;;;;18.00;17.67;;;;;;;;5029684;28;45765;-70
2023/06/12 04:22:41;;;;;;;;;14.33;14.33;;;;;;;;5031332;28;45702;-71
2023/06/12 04:25:07;;;;;;;;;18.00;13.33;;;;;;;;5033205;28;45595;-71
2023/06/12 04:27:33;;;;;;;;;13.00;12.67;;;;;;;;5034457;28;45647;-71
2023/06/12 04:29:59;;;;;;;;;12.67;12.33;;;;;;;;5034350;28;45740;-70
2023/06/12 04:32:24;;;;;;;;;15.33;13.33;;;;;;;;5039872;28;45283;-72
2023/06/12 04:34:50;;;;;;;;;12.33;12.33;;;;;;;;5039438;28;45670;-72
2023/06/12 04:37:18;;;;;;;;;34.00;31.67;;;;;;;;5035184;28;45394;-71
2023/06/12 04:39:45;;;;;;;;;15.00;14.33;;;;;;;;5044084;28;45646;-71
2023/06/12 04:42:10;;;;;;;;;34.00;28.00;;;;;;;;5035177;28;45876;-72
2023/06/12 04:44:36;;;;;;;;;25.33;23.67;;;;;;;;5046969;28;45682;-72
2023/06/12 04:47:04;;;;;;;;;22.33;19.33;;;;;;;;5035048;28;45424;-72
2023/06/12 04:49:32;;;;;;;;;18.33;15.00;;;;;;;;5034729;28;46506;-72
2023/06/12 04:52:00;;;;;;;;;14.33;12.33;;;;;;;;5034999;28;45363;-71
2023/06/12 04:54:25;;;;;;;;;15.33;13.00;;;;;;;;5032177;28;45792;-71
2023/06/12 04:56:52;;;;;;;;;14.33;14.33;;;;;;;;5035092;28;45610;-71
2023/06/12 04:59:17;;;;;;;;;21.33;18.67;;;;;;;;5034914;28;45416;-74
2023/06/12 05:01:44;;;;;;;;;11.67;11.00;;;;;;;;5034557;28;45506;-71
2023/06/12 05:04:10;;;;;;;;;15.33;13.00;;;;;;;;5034688;28;45313;-71
2023/06/12 05:06:37;;;;;;;;;15.67;14.00;;;;;;;;5033271;28;45329;-71
2023/06/12 05:09:07;;;;;;;;;16.33;16.33;;;;;;;;5032308;28;45783;-76
2023/06/12 05:11:33;;;;;;;;;23.00;18.67;;;;;;;;5033578;28;45459;-75
2023/06/12 05:13:58;;;;;;;;;12.33;10.33;;;;;;;;5032922;28;45618;-74
2023/06/12 05:16:23;;;;;;;;;16.67;16.67;;;;;;;;5032783;28;45394;-76
2023/06/12 05:18:48;;;;;;;;;19.33;15.00;;;;;;;;5029410;28;46610;-77
2023/06/12 05:21:14;;;;;;;;;15.00;15.00;;;;;;;;5027524;28;45369;-79
2023/06/12 05:23:40;;;;;;;;;14.67;14.67;;;;;;;;5031130;28;45476;-73
2023/06/12 05:26:05;;;;;;;;;16.00;13.00;;;;;;;;5034739;28;45844;-74
2023/06/12 05:28:30;;;;;;;;;16.67;15.67;;;;;;;;5034093;28;45876;-73
2023/06/12 05:30:56;;;;;;;;;13.67;12.67;;;;;;;;5040525;28;45469;-74
2023/06/12 05:33:21;;;;;;;;;13.67;13.67;;;;;;;;5042800;28;45442;-75
2023/06/12 05:35:47;;;;;;;;;14.33;12.00;;;;;;;;5027869;28;45393;-73
2023/06/12 05:38:12;;;;;;;;;9.33;9.00;;;;;;;;5030204;28;45750;-76
2023/06/12 05:40:37;;;;;;;;;10.33;10.33;;;;;;;;5033103;28;45991;-72
2023/06/12 05:43:03;;;;;;;;;8.33;6.67;;;;;;;;5036671;28;45805;-72
2023/06/12 05:45:28;;;;;;;;;12.00;12.00;;;;;;;;5039869;28;45457;-77
2023/06/12 05:47:53;;;;;;;;;13.00;11.00;;;;;;;;5032063;28;45856;-74
2023/06/12 05:50:19;;;;;;;;;8.67;8.00;;;;;;;;5031440;28;45953;-76
2023/06/12 05:52:44;;;;;;;;;9.67;9.67;;;;;;;;5033572;28;45965;-75
2023/06/12 05:55:09;;;;;;;;;11.00;10.00;;;;;;;;5032073;28;46606;-76
2023/06/12 05:57:35;;;;;;;;;10.67;8.67;;;;;;;;5035134;28;47609;-79
2023/06/12 06:00:00;;;;;;;;;7.00;7.00;;;;;;;;5033836;28;45727;-72
2023/06/12 06:02:25;;;;;;;;;11.67;9.00;;;;;;;;5031045;28;45586;-75
2023/06/12 06:04:54;;;;;;;;;9.67;8.67;;;;;;;;5028501;28;45386;-76
2023/06/12 06:07:19;;;;;;;;;7.00;7.00;;;;;;;;5030316;28;45716;-76
2023/06/12 06:09:45;;;;;;;;;10.00;6.33;;;;;;;;5031622;28;45751;-75
2023/06/12 06:12:10;;;;;;;;;9.00;6.00;;;;;;;;5029323;28;45527;-75
2023/06/12 06:14:35;;;;;;;;;7.00;7.00;;;;;;;;5026462;28;45599;-76
2023/06/12 06:17:01;;;;;;;;;9.67;8.00;;;;;;;;5030528;28;47755;-76
2023/06/12 06:19:26;;;;;;;;;5.50;5.50;;;;;;;;5028121;28;45814;-75
2023/06/12 06:21:51;;;;;;;;;7.25;6.00;;;;;;;;5032523;28;45368;-76
2023/06/12 06:24:16;;;;;;;;;6.25;5.00;;;;;;;;5035826;28;45726;-76
2023/06/12 06:26:42;;;;;;;;;7.75;7.75;;;;;;;;5035643;28;46704;-74
2023/06/12 06:29:07;;;;;;;;;9.50;7.50;;;;;;;;5028111;28;45400;-74
2023/06/12 06:31:32;;;;;;;;;8.25;6.50;;;;;;;;5034574;28;45525;-74
2023/06/12 06:33:57;;;;;;;;;7.50;7.50;;;;;;;;5033332;28;45668;-75
2023/06/12 06:36:24;;;;;;;;;7.25;5.50;;;;;;;;5033403;28;47615;-73
2023/06/12 06:38:50;;;;;;;;;6.50;6.25;;;;;;;;5036026;28;45500;-74
2023/06/12 06:41:15;;;;;;;;;10.75;7.25;;;;;;;;5036746;28;46070;-73
2023/06/12 06:43:40;;;;;;;;;7.25;6.00;;;;;;;;5033338;28;45857;-74
2023/06/12 06:46:05;;;;;;;;;9.75;8.75;;;;;;;;5032904;28;46243;-77
2023/06/12 06:48:31;;;;;;;;;8.25;7.00;;;;;;;;5032056;28;45742;-75
2023/06/12 06:50:57;;;;;;;;;12.50;8.75;;;;;;;;5032363;28;45638;-73
2023/06/12 06:53:22;;;;;;;;;5.75;5.75;;;;;;;;5030978;28;45663;-73
2023/06/12 06:55:47;;;;;;;;;6.00;5.75;;;;;;;;5031163;28;47024;-74
2023/06/12 06:58:13;;;;;;;;;7.00;5.50;;;;;;;;5029941;28;45358;-71
2023/06/12 07:00:38;;;;;;;;;8.75;5.00;;;;;;;;5030491;28;45868;-73
2023/06/12 07:03:03;;;;;;;;;6.50;6.50;;;;;;;;5040421;28;45448;-75
2023/06/12 07:05:29;;;;;;;;;8.75;8.50;;;;;;;;5032494;28;46209;-74
2023/06/12 07:07:54;;;;;;;;;8.00;6.50;;;;;;;;5030381;28;45749;-77
2023/06/12 07:10:19;;;;;;;;;9.75;5.75;;;;;;;;5032371;28;45644;-75
2023/06/12 07:12:45;;;;;;;;;10.33;8.33;;;;;;;;5043709;28;45629;-75
2023/06/12 07:15:10;;;;;;;;;6.00;6.00;;;;;;;;5034546;28;45604;-74
2023/06/12 07:17:35;;;;;;;;;9.75;6.75;;;;;;;;5032611;28;45314;-73
2023/06/12 07:20:01;;;;;;;;;5.50;5.50;;;;;;;;5032416;28;46155;-73
2023/06/12 07:22:28;;;;;;;;;9.33;8.67;;;;;;;;5032546;28;45722;-74
2023/06/12 07:24:53;;;;;;;;;10.50;7.00;;;;;;;;5032670;28;45414;-75
2023/06/12 07:27:18;;;;;;;;;10.67;8.33;;;;;;;;5032811;28;45417;-74
2023/06/12 07:29:44;;;;;;;;;10.75;7.50;;;;;;;;5032261;28;45416;-74
2023/06/12 07:32:10;;;;;;;;;6.00;6.00;;;;;;;;5033565;28;45414;-73
2023/06/12 07:34:35;;;;;;;;;9.50;8.25;;;;;;;;5034769;28;46315;-74
2023/06/12 07:37:00;;;;;;;;;9.00;7.00;;;;;;;;5039107;28;45743;-75
2023/06/12 07:39:26;;;;;;;;;9.50;7.50;;;;;;;;5031393;28;45735;-74
2023/06/12 07:41:52;;;;;;;;;8.50;7.25;;;;;;;;5032252;28;45808;-73
2023/06/12 07:44:18;;;;;;;;;6.25;6.25;;;;;;;;5032203;28;46359;-73
2023/06/12 07:46:43;;;;;;;;;11.25;9.00;;;;;;;;5032360;28;45588;-74
2023/06/12 07:49:09;;;;;;;;;6.50;5.25;;;;;;;;5044493;28;45634;-75
2023/06/12 07:51:34;;;;;;;;;5.00;5.00;;;;;;;;5033411;28;45444;-74
2023/06/12 07:53:59;;;;;;;;;4.00;4.00;;;;;;;;5031893;28;47084;-75
2023/06/12 07:56:25;;;;;;;;;8.25;7.00;;;;;;;;5030796;28;45398;-72
2023/06/12 07:58:51;;;;;;;;;6.75;6.75;;;;;;;;5029452;28;45247;-74
2023/06/12 08:01:16;;;;;;;;;6.25;6.25;;;;;;;;5032735;28;45309;-73
2023/06/12 08:03:43;;;;;;;;;6.50;6.25;;;;;;;;5035580;28;45860;-72
2023/06/12 08:06:12;;;;;;;;;7.50;6.25;;;;;;;;5034627;28;45469;-75
2023/06/12 08:08:41;;;;;;;;;7.00;6.00;;;;;;;;5034512;28;45796;-74
2023/06/12 08:11:07;;;;;;;;;8.00;8.00;;;;;;;;5039591;28;45853;-70
2023/06/12 08:13:32;;;;;;;;;6.00;4.75;;;;;;;;5035025;28;45523;-68
2023/06/12 08:15:58;;;;;;;;;9.50;9.50;;;;;;;;5034065;28;45828;-70
2023/06/12 08:18:23;;;;;;;;;7.50;7.50;;;;;;;;5035520;28;45540;-70
2023/06/12 08:20:48;;;;;;;;;9.25;7.50;;;;;;;;5034752;28;45627;-69
2023/06/12 08:23:17;;;;;;;;;9.75;7.25;;;;;;;;5033889;28;46693;-68
2023/06/12 08:25:43;;;;;;;;;9.00;7.50;;;;;;;;5033363;28;45847;-69
2023/06/12 08:28:08;;;;;;;;;8.75;8.00;;;;;;;;5034106;28;45643;-69
2023/06/12 08:30:34;;;;;;;;;8.75;7.25;;;;;;;;5032129;28;45851;-69
2023/06/12 08:32:59;;;;;;;;;7.25;4.50;;;;;;;;5034243;28;46069;-71
2023/06/12 08:35:24;;;;;;;;;8.25;8.25;;;;;;;;5028037;28;45377;-67
2023/06/12 08:37:50;;;;;;;;;15.25;10.75;;;;;;;;5031375;28;45566;-69
2023/06/12 08:40:17;;;;;;;;;6.50;6.50;;;;;;;;5034898;28;45273;-69
2023/06/12 08:42:49;;;;;;;;;9.50;7.25;;;;;;;;5031493;28;45782;-69
2023/06/12 08:45:16;;;;;;;;;7.50;7.50;;;;;;;;5037782;28;45465;-67
2023/06/12 08:47:42;;;;;;;;;6.75;6.75;;;;;;;;5034071;28;45456;-71
2023/06/12 08:50:08;;;;;;;;;10.00;9.50;;;;;;;;5033722;28;47228;-69
2023/06/12 08:52:33;;;;;;;;;8.50;5.50;;;;;;;;5035375;28;45499;-70
2023/06/12 08:54:59;;;;;;;;;8.00;5.50;;;;;;;;5035029;28;45442;-71
2023/06/12 08:57:26;;;;;;;;;8.25;8.25;;;;;;;;5027367;28;45790;-71
2023/06/12 08:59:51;;;;;;;;;6.50;6.00;;;;;;;;5032601;28;45665;-69
2023/06/12 09:02:18;;;;;;;;;12.00;7.25;;;;;;;;5025441;28;45687;-70
2023/06/12 09:04:48;;;;;;;;;13.50;10.50;;;;;;;;5035031;28;45610;-69
2023/06/12 09:07:17;;;;;;;;;8.75;8.75;;;;;;;;5033784;28;45487;-70
2023/06/12 09:09:45;;;;;;;;;10.75;9.25;;;;;;;;5034239;28;45718;-70
2023/06/12 09:12:12;;;;;;;;;9.50;8.00;;;;;;;;5033277;28;47168;-68
2023/06/12 09:14:38;;;;;;;;;9.75;8.75;;;;;;;;5033784;28;45493;-68
2023/06/12 09:17:03;;;;;;;;;11.00;11.00;;;;;;;;5042912;28;45757;-72
2023/06/12 09:19:55;;;;;;;;;9.25;9.25;;;;;;;;5048353;28;45459;-70
2023/06/12 09:22:23;;;;;;;;;11.25;11.25;;;;;;;;5030102;28;45444;-70
2023/06/12 09:24:48;;;;;;;;;14.25;12.25;;;;;;;;5047278;28;45781;-69
2023/06/12 09:27:14;;;;;;;;;11.00;11.00;;;;;;;;5021128;28;45802;-71
2023/06/12 09:29:40;;;;;;;;;10.00;8.75;;;;;;;;5033750;28;45565;-73
2023/06/12 09:32:07;;;;;;;;;11.50;10.50;;;;;;;;5047005;28;45643;-69
2023/06/12 09:34:33;;;;;;;;;10.25;9.25;;;;;;;;5046921;28;45461;-67
2023/06/12 09:37:03;;;;;;;;;9.00;9.00;;;;;;;;5031605;28;45461;-70
2023/06/12 09:39:29;;;;;;;;;9.25;9.25;;;;;;;;5032213;28;45751;-70
2023/06/12 09:41:55;;;;;;;;;10.00;9.00;;;;;;;;5029707;28;48134;-71
2023/06/12 09:44:39;;;;;;;;;11.50;10.25;;;;;;;;5030990;28;45395;-67
2023/06/12 09:47:05;;;;;;;;;11.00;9.50;;;;;;;;5033379;28;45714;-70
2023/06/12 09:49:31;;;;;;;;;7.25;7.25;;;;;;;;5039021;28;45506;-71
2023/06/12 09:52:00;;;;;;;;;11.50;10.50;;;;;;;;5040700;28;45462;-72
2023/06/12 09:54:27;;;;;;;;;11.25;9.25;;;;;;;;5033697;28;45697;-69
2023/06/12 09:56:54;;;;;;;;;14.75;12.25;;;;;;;;5027578;28;45788;-69
2023/06/12 09:59:21;;;;;;;;;11.00;11.00;;;;;;;;5021140;28;45844;-70
2023/06/12 10:01:47;;;;;;;;;8.25;8.00;;;;;;;;5033631;28;45754;-72
2023/06/12 10:04:14;;;;;;;;;13.25;13.25;;;;;;;;5033151;28;45512;-71
2023/06/12 10:06:40;;;;;;;;;12.25;11.25;;;;;;;;5041241;28;45460;-70
2023/06/12 10:09:06;;;;;;;;;16.00;13.50;;;;;;;;5033371;28;45622;-69
2023/06/12 10:11:33;;;;;;;;;12.00;11.67;;;;;;;;5032316;28;46679;-70
2023/06/12 10:13:58;;;;;;;;;12.75;12.25;;;;;;;;5033835;28;45833;-70
2023/06/12 10:16:25;;;;;;;;;12.00;9.50;;;;;;;;5032893;28;45374;-69
2023/06/12 10:18:50;;;;;;;;;12.75;12.25;;;;;;;;5021038;28;45391;-74
2023/06/12 10:21:18;;;;;;;;;24.67;20.00;;;;;;;;5032152;28;45659;-72
2023/06/12 10:23:44;;;;;;;;;14.50;13.00;;;;;;;;5021242;28;45488;-71
2023/06/12 10:26:09;;;;;;;;;11.75;10.50;;;;;;;;5029239;27;46246;-69
2023/06/12 10:28:35;;;;;;;;;17.00;14.67;;;;;;;;5030578;28;46086;-69
2023/06/12 10:31:16;;;;;;;;;15.50;12.50;;;;;;;;5034826;28;46157;-70
2023/06/12 10:33:58;;;;;;;;;21.67;17.67;;;;;;;;5027296;28;45468;-70
2023/06/12 10:36:23;;;;;;;;;18.00;16.00;;;;;;;;5027621;28;45676;-70
2023/06/12 10:38:48;;;;;;;;;19.00;18.33;;;;;;;;5026399;28;45763;-69
2023/06/12 10:41:28;;;;;;;;;17.67;17.67;;;;;;;;5029662;28;45988;-71
2023/06/12 10:43:54;;;;;;;;;18.67;14.67;;;;;;;;5038098;28;45707;-71
2023/06/12 10:46:19;;;;;;;;;18.33;16.67;;;;;;;;5029743;28;45855;-72
2023/06/12 10:48:46;;;;;;;;;17.67;14.33;;;;;;;;5030788;28;45764;-70
2023/06/12 10:51:11;;;;;;;;;19.67;16.00;;;;;;;;5031576;28;46362;-71
2023/06/12 10:53:42;;;;;;;;;13.00;12.67;;;;;;;;5029858;28;45367;-70
2023/06/12 10:56:08;;;;;;;;;14.67;14.67;;;;;;;;5025855;28;45843;-72
2023/06/12 10:58:37;;;;;;;;;16.33;16.33;;;;;;;;5029347;28;45783;-69
2023/06/12 11:01:06;;;;;;;;;18.00;15.33;;;;;;;;5015950;28;47995;-69
2023/06/12 11:03:34;;;;;;;;;19.67;16.67;;;;;;;;5025271;28;45880;-68
2023/06/12 11:06:12;;;;;;;;;17.00;15.00;;;;;;;;5029579;28;45838;-70
2023/06/12 11:08:40;;;;;;;;;17.33;14.67;;;;;;;;5027625;28;45445;-68
2023/06/12 11:11:06;;;;;;;;;21.00;18.00;;;;;;;;5020640;28;46294;-69
2023/06/12 11:13:31;;;;;;;;;15.67;13.00;;;;;;;;5029415;28;45536;-67
2023/06/12 11:15:56;;;;;;;;;15.67;15.67;;;;;;;;5035361;28;45506;-68
2023/06/12 11:18:21;;;;;;;;;22.00;18.00;;;;;;;;5022454;28;47269;-69
2023/06/12 11:20:53;;;;;;;;;18.50;14.25;;;;;;;;5023977;28;45451;-71
2023/06/12 11:23:21;;;;;;;;;15.50;14.25;;;;;;;;5024046;28;45782;-69
2023/06/12 11:25:46;;;;;;;;;14.50;13.50;;;;;;;;5022004;28;45527;-69
2023/06/12 11:28:12;;;;;;;;;17.67;15.00;;;;;;;;5028168;28;45377;-69
2023/06/12 11:30:40;;;;;;;;;18.33;18.00;;;;;;;;5026650;28;46652;-71
2023/06/12 11:33:10;;;;;;;;;14.67;14.00;;;;;;;;5028453;28;45708;-69
2023/06/12 11:35:39;;;;;;;;;16.00;16.00;;;;;;;;5021213;28;45624;-71
2023/06/12 11:38:05;;;;;;;;;21.33;18.33;;;;;;;;5019399;28;45535;-71
2023/06/12 11:40:30;;;;;;;;;17.33;15.33;;;;;;;;5028507;28;46866;-70
2023/06/12 11:42:56;;;;;;;;;19.67;18.00;;;;;;;;5029675;28;45631;-70
2023/06/12 11:45:21;;;;;;;;;19.67;19.33;;;;;;;;5028076;28;45558;-71
2023/06/12 11:47:46;;;;;;;;;19.33;18.00;;;;;;;;5014090;28;45437;-70
2023/06/12 11:50:14;;;;;;;;;19.33;18.67;;;;;;;;5012097;28;46432;-68
2023/06/12 11:52:41;;;;;;;;;22.33;20.33;;;;;;;;5017550;28;45809;-69
2023/06/12 11:55:08;;;;;;;;;22.33;21.00;;;;;;;;5022244;28;45832;-71
2023/06/12 11:57:34;;;;;;;;;22.00;21.00;;;;;;;;5020333;28;45498;-71
2023/06/12 12:00:06;;;;;;;;;19.33;18.33;;;;;;;;5026558;28;47247;-71
2023/06/12 12:02:39;;;;;;;;;20.67;20.67;;;;;;;;5030287;28;45856;-71
2023/06/12 12:05:06;;;;;;;;;25.00;22.33;;;;;;;;5032931;28;45841;-71
2023/06/12 12:07:32;;;;;;;;;23.00;19.67;;;;;;;;5032837;28;45538;-70
2023/06/12 12:10:04;;;;;;;;;20.33;19.67;;;;;;;;5023904;28;45580;-69
2023/06/12 12:12:37;;;;;;;;;20.00;17.67;;;;;;;;5025939;28;45421;-70
2023/06/12 12:15:03;;;;;;;;;18.67;18.00;;;;;;;;5031579;28;45514;-72
2023/06/12 12:17:32;;;;;;;;;18.67;17.67;;;;;;;;5028174;28;45639;-70
2023/06/12 12:20:01;;;;;;;;;18.67;15.00;;;;;;;;5037221;28;46292;-70
2023/06/12 12:22:26;;;;;;;;;17.67;16.33;;;;;;;;5021075;28;45628;-72
2023/06/12 12:24:53;;;;;;;;;19.67;19.67;;;;;;;;5031703;28;45251;-70
2023/06/12 12:27:19;;;;;;;;;18.33;17.00;;;;;;;;5022256;28;45385;-74
2023/06/12 12:29:46;;;;;;;;;21.00;20.67;;;;;;;;5030175;28;47879;-74
2023/06/12 12:32:11;;;;;;;;;20.67;17.00;;;;;;;;5039836;28;45761;-76
2023/06/12 12:34:36;;;;;;;;;22.00;19.00;;;;;;;;5020389;28;45357;-74
2023/06/12 12:37:03;;;;;;;;;21.33;20.33;;;;;;;;5029566;28;45901;-73
2023/06/12 12:39:29;;;;;;;;;22.00;20.00;;;;;;;;5019948;28;45772;-73
2023/06/12 12:41:54;;;;;;;;;19.67;18.33;;;;;;;;5033212;28;45295;-74
2023/06/12 12:44:19;;;;;;;;;17.67;17.00;;;;;;;;5022845;28;45906;-73
2023/06/12 12:46:45;;;;;;;;;20.67;17.33;;;;;;;;5023217;28;45625;-74
2023/06/12 12:49:11;;;;;;;;;18.67;16.33;;;;;;;;5026869;28;46533;-75
2023/06/12 12:51:36;;;;;;;;;16.33;16.33;;;;;;;;5025676;28;45636;-73
2023/06/12 12:54:01;;;;;;;;;18.75;16.75;;;;;;;;5018817;28;45672;-74
2023/06/12 12:56:26;;;;;;;;;18.75;16.50;;;;;;;;5025621;28;45568;-74
2023/06/12 12:58:52;;;;;;;;;15.33;15.33;;;;;;;;5023078;28;47058;-74
2023/06/12 13:01:17;;;;;;;;;14.33;13.33;;;;;;;;5013714;28;45779;-73
2023/06/12 13:03:42;;;;;;;;;17.00;15.00;;;;;;;;5028931;28;45703;-75
2023/06/12 13:06:11;;;;;;;;;20.67;16.67;;;;;;;;5025621;28;46859;-76
2023/06/12 13:08:37;;;;;;;;;21.67;17.67;;;;;;;;5028378;28;47175;-74
2023/06/12 13:11:02;;;;;;;;;17.00;17.00;;;;;;;;5019646;28;45302;-75
2023/06/12 13:13:28;;;;;;;;;19.00;18.33;;;;;;;;5014727;28;45453;-76
2023/06/12 13:15:53;;;;;;;;;19.00;19.00;;;;;;;;5015862;28;45958;-73
2023/06/12 13:18:19;;;;;;;;;16.00;13.67;;;;;;;;5021631;28;46054;-74
2023/06/12 13:20:45;;;;;;;;;21.33;18.33;;;;;;;;5031030;28;45406;-75
2023/06/12 13:23:10;;;;;;;;;17.67;16.00;;;;;;;;5031030;28;45679;-75
2023/06/12 13:25:38;;;;;;;;;21.00;14.25;;;;;;;;5024568;28;45621;-74
2023/06/12 13:28:03;;;;;;;;;15.67;15.33;;;;;;;;5027590;28;46178;-71
2023/06/12 13:30:29;;;;;;;;;17.67;17.67;;;;;;;;5026431;28;45680;-75
2023/06/12 13:32:54;;;;;;;;;19.67;17.33;;;;;;;;5022941;28;46364;-74
2023/06/12 13:35:20;;;;;;;;;19.00;18.00;;;;;;;;5031117;28;45962;-76
2023/06/12 13:37:45;;;;;;;;;15.00;13.75;;;;;;;;5029976;28;45833;-72
2023/06/12 13:40:12;;;;;;;;;15.75;12.50;;;;;;;;5032610;28;45655;-76
2023/06/12 13:42:38;;;;;;;;;18.67;15.67;;;;;;;;5025403;28;45701;-74
2023/06/12 13:45:05;;;;;;;;;14.25;14.25;;;;;;;;5031918;28;45420;-74
2023/06/12 13:47:30;;;;;;;;;15.33;15.33;;;;;;;;5020849;28;46435;-76
2023/06/12 13:49:55;;;;;;;;;16.00;16.00;;;;;;;;5029244;28;45453;-72
2023/06/12 13:52:21;;;;;;;;;22.67;20.33;;;;;;;;5033789;28;45584;-72
2023/06/12 13:54:46;;;;;;;;;17.33;15.00;;;;;;;;5030011;28;47250;-73
2023/06/12 13:57:12;;;;;;;;;30.67;27.33;;;;;;;;5029538;28;45694;-74
2023/06/12 13:59:37;;;;;;;;;26.33;23.00;;;;;;;;5036344;28;45902;-72
2023/06/12 14:02:03;;;;;;;;;14.50;14.50;;;;;;;;5025836;28;45495;-73
2023/06/12 14:04:28;;;;;;;;;18.75;15.00;;;;;;;;5023825;28;45763;-73
2023/06/12 14:06:54;;;;;;;;;17.67;17.67;;;;;;;;5040751;28;45928;-72
2023/06/12 14:09:19;;;;;;;;;12.75;11.75;;;;;;;;5035469;28;45526;-72
2023/06/12 14:11:45;;;;;;;;;23.33;20.00;;;;;;;;5028467;28;45574;-72
2023/06/12 14:14:11;;;;;;;;;15.67;13.67;;;;;;;;5031381;28;45491;-73
2023/06/12 14:16:36;;;;;;;;;10.75;10.75;;;;;;;;5035922;28;46854;-72
2023/06/12 14:19:02;;;;;;;;;19.75;16.25;;;;;;;;5031678;28;45676;-72